sensor_id;sensor_type;location;lat;lon;timestamp;P1;durP1;ratioP1;P2;durP2;ratioP2
63050;SDS011;49136;47.416;19.402;2024-01-30T00:01:42;41.15;;;39.33;;
63050;SDS011;49136;47.416;19.402;2024-01-30T00:04:08;45.90;;;43.88;;
63050;SDS011;49136;47.416;19.402;2024-01-30T00:06:36;44.85;;;42.90;;
63050;SDS011;49136;47.416;19.402;2024-01-30T00:09:01;46.47;;;44.42;;
63050;SDS011;49136;47.416;19.402;2024-01-30T00:11:28;49.80;;;47.40;;
63050;SDS011;49136;47.416;19.402;2024-01-30T00:13:54;52.33;;;50.08;;
63050;SDS011;49136;47.416;19.402;2024-01-30T00:16:24;50.30;;;48.10;;
63050;SDS011;49136;47.416;19.402;2024-01-30T00:18:51;48.08;;;45.97;;
63050;SDS011;49136;47.416;19.402;2024-01-30T00:21:17;47.80;;;45.75;;
63050;SDS011;49136;47.416;19.402;2024-01-30T00:23:43;46.75;;;44.70;;
63050;SDS011;49136;47.416;19.402;2024-01-30T00:26:08;47.35;;;44.95;;
63050;SDS011;49136;47.416;19.402;2024-01-30T00:28:33;43.75;;;41.72;;
63050;SDS011;49136;47.416;19.402;2024-01-30T00:30:59;43.22;;;41.13;;
63050;SDS011;49136;47.416;19.402;2024-01-30T00:33:24;47.03;;;44.58;;
63050;SDS011;49136;47.416;19.402;2024-01-30T00:35:50;39.50;;;37.78;;
63050;SDS011;49136;47.416;19.402;2024-01-30T00:38:15;41.75;;;39.92;;
63050;SDS011;49136;47.416;19.402;2024-01-30T00:40:40;35.92;;;34.33;;
63050;SDS011;49136;47.416;19.402;2024-01-30T00:43:06;37.95;;;36.15;;
63050;SDS011;49136;47.416;19.402;2024-01-30T00:45:31;34.33;;;32.58;;
63050;SDS011;49136;47.416;19.402;2024-01-30T00:47:57;30.77;;;29.45;;
63050;SDS011;49136;47.416;19.402;2024-01-30T00:50:22;37.70;;;35.92;;
63050;SDS011;49136;47.416;19.402;2024-01-30T00:52:48;40.63;;;38.85;;
63050;SDS011;49136;47.416;19.402;2024-01-30T00:55:13;40.78;;;38.90;;
63050;SDS011;49136;47.416;19.402;2024-01-30T00:57:39;36.45;;;34.90;;
63050;SDS011;49136;47.416;19.402;2024-01-30T01:00:05;46.28;;;42.78;;
63050;SDS011;49136;47.416;19.402;2024-01-30T01:02:33;44.60;;;42.40;;
63050;SDS011;49136;47.416;19.402;2024-01-30T01:04:59;47.03;;;44.92;;
63050;SDS011;49136;47.416;19.402;2024-01-30T01:07:24;43.38;;;41.45;;
63050;SDS011;49136;47.416;19.402;2024-01-30T01:09:50;49.00;;;46.60;;
63050;SDS011;49136;47.416;19.402;2024-01-30T01:12:15;40.63;;;38.88;;
63050;SDS011;49136;47.416;19.402;2024-01-30T01:14:41;43.25;;;41.35;;
63050;SDS011;49136;47.416;19.402;2024-01-30T01:17:06;44.13;;;41.95;;
63050;SDS011;49136;47.416;19.402;2024-01-30T01:19:32;40.50;;;38.72;;
63050;SDS011;49136;47.416;19.402;2024-01-30T01:21:58;38.40;;;36.72;;
63050;SDS011;49136;47.416;19.402;2024-01-30T01:24:23;41.20;;;39.30;;
63050;SDS011;49136;47.416;19.402;2024-01-30T01:26:49;34.30;;;32.83;;
63050;SDS011;49136;47.416;19.402;2024-01-30T01:29:14;38.55;;;36.85;;
63050;SDS011;49136;47.416;19.402;2024-01-30T01:31:41;29.73;;;28.48;;
63050;SDS011;49136;47.416;19.402;2024-01-30T01:34:12;38.88;;;37.08;;
63050;SDS011;49136;47.416;19.402;2024-01-30T01:36:38;38.65;;;36.97;;
63050;SDS011;49136;47.416;19.402;2024-01-30T01:39:04;29.88;;;28.63;;
63050;SDS011;49136;47.416;19.402;2024-01-30T01:41:30;45.30;;;43.35;;
63050;SDS011;49136;47.416;19.402;2024-01-30T01:43:56;43.47;;;41.60;;
63050;SDS011;49136;47.416;19.402;2024-01-30T01:46:22;46.00;;;43.97;;
63050;SDS011;49136;47.416;19.402;2024-01-30T01:48:48;114.28;;;109.10;;
63050;SDS011;49136;47.416;19.402;2024-01-30T01:51:14;35.85;;;34.33;;
63050;SDS011;49136;47.416;19.402;2024-01-30T01:53:40;41.78;;;39.97;;
63050;SDS011;49136;47.416;19.402;2024-01-30T01:56:06;39.88;;;37.83;;
63050;SDS011;49136;47.416;19.402;2024-01-30T01:58:31;45.17;;;42.83;;
63050;SDS011;49136;47.416;19.402;2024-01-30T02:00:57;44.45;;;42.28;;
63050;SDS011;49136;47.416;19.402;2024-01-30T02:03:24;42.30;;;40.38;;
63050;SDS011;49136;47.416;19.402;2024-01-30T02:05:53;42.17;;;40.20;;
63050;SDS011;49136;47.416;19.402;2024-01-30T02:08:19;40.63;;;38.75;;
63050;SDS011;49136;47.416;19.402;2024-01-30T02:10:45;41.58;;;39.67;;
63050;SDS011;49136;47.416;19.402;2024-01-30T02:13:10;41.75;;;39.88;;
63050;SDS011;49136;47.416;19.402;2024-01-30T02:15:36;39.95;;;37.80;;
63050;SDS011;49136;47.416;19.402;2024-01-30T02:18:01;42.47;;;40.63;;
63050;SDS011;49136;47.416;19.402;2024-01-30T02:20:26;39.17;;;37.47;;
63050;SDS011;49136;47.416;19.402;2024-01-30T02:22:55;42.03;;;40.15;;
63050;SDS011;49136;47.416;19.402;2024-01-30T02:25:30;40.25;;;38.53;;
63050;SDS011;49136;47.416;19.402;2024-01-30T02:28:12;40.25;;;38.42;;
63050;SDS011;49136;47.416;19.402;2024-01-30T02:30:44;41.08;;;39.30;;
63050;SDS011;49136;47.416;19.402;2024-01-30T02:33:10;38.67;;;36.92;;
63050;SDS011;49136;47.416;19.402;2024-01-30T02:35:36;41.00;;;39.10;;
63050;SDS011;49136;47.416;19.402;2024-01-30T02:38:01;38.40;;;36.40;;
63050;SDS011;49136;47.416;19.402;2024-01-30T02:40:27;42.58;;;40.65;;
63050;SDS011;49136;47.416;19.402;2024-01-30T02:42:52;55.90;;;51.22;;
63050;SDS011;49136;47.416;19.402;2024-01-30T02:45:18;47.78;;;45.72;;
63050;SDS011;49136;47.416;19.402;2024-01-30T02:47:43;50.83;;;48.05;;
63050;SDS011;49136;47.416;19.402;2024-01-30T02:50:09;54.20;;;51.72;;
63050;SDS011;49136;47.416;19.402;2024-01-30T02:52:35;51.53;;;49.28;;
63050;SDS011;49136;47.416;19.402;2024-01-30T02:55:00;46.55;;;44.50;;
63050;SDS011;49136;47.416;19.402;2024-01-30T02:57:27;54.15;;;51.67;;
63050;SDS011;49136;47.416;19.402;2024-01-30T02:59:52;54.53;;;52.05;;
63050;SDS011;49136;47.416;19.402;2024-01-30T03:02:18;55.40;;;52.90;;
63050;SDS011;49136;47.416;19.402;2024-01-30T03:04:43;53.15;;;50.78;;
63050;SDS011;49136;47.416;19.402;2024-01-30T03:07:09;51.67;;;49.28;;
63050;SDS011;49136;47.416;19.402;2024-01-30T03:09:34;57.85;;;55.25;;
63050;SDS011;49136;47.416;19.402;2024-01-30T03:12:00;60.47;;;57.75;;
63050;SDS011;49136;47.416;19.402;2024-01-30T03:14:26;57.30;;;54.75;;
63050;SDS011;49136;47.416;19.402;2024-01-30T03:16:51;55.53;;;53.03;;
63050;SDS011;49136;47.416;19.402;2024-01-30T03:19:17;55.10;;;52.55;;
63050;SDS011;49136;47.416;19.402;2024-01-30T03:21:42;56.45;;;53.95;;
63050;SDS011;49136;47.416;19.402;2024-01-30T03:24:07;47.08;;;45.03;;
63050;SDS011;49136;47.416;19.402;2024-01-30T03:26:34;55.22;;;52.67;;
63050;SDS011;49136;47.416;19.402;2024-01-30T03:28:59;64.43;;;61.35;;
63050;SDS011;49136;47.416;19.402;2024-01-30T03:31:25;64.25;;;61.45;;
63050;SDS011;49136;47.416;19.402;2024-01-30T03:33:50;59.47;;;56.78;;
63050;SDS011;49136;47.416;19.402;2024-01-30T03:36:16;65.80;;;62.90;;
63050;SDS011;49136;47.416;19.402;2024-01-30T03:38:42;63.67;;;60.83;;
63050;SDS011;49136;47.416;19.402;2024-01-30T03:41:08;68.50;;;65.43;;
63050;SDS011;49136;47.416;19.402;2024-01-30T03:43:34;69.15;;;66.15;;
63050;SDS011;49136;47.416;19.402;2024-01-30T03:46:00;68.88;;;65.57;;
63050;SDS011;49136;47.416;19.402;2024-01-30T03:48:26;72.18;;;69.03;;
63050;SDS011;49136;47.416;19.402;2024-01-30T03:50:51;72.32;;;68.50;;
63050;SDS011;49136;47.416;19.402;2024-01-30T03:53:17;70.68;;;67.57;;
63050;SDS011;49136;47.416;19.402;2024-01-30T03:55:42;68.32;;;65.32;;
63050;SDS011;49136;47.416;19.402;2024-01-30T03:58:08;69.55;;;66.50;;
63050;SDS011;49136;47.416;19.402;2024-01-30T04:00:33;73.60;;;70.22;;
63050;SDS011;49136;47.416;19.402;2024-01-30T04:02:58;69.47;;;66.25;;
63050;SDS011;49136;47.416;19.402;2024-01-30T04:05:24;82.57;;;78.93;;
63050;SDS011;49136;47.416;19.402;2024-01-30T04:07:49;83.35;;;79.68;;
63050;SDS011;49136;47.416;19.402;2024-01-30T04:10:15;84.57;;;80.15;;
63050;SDS011;49136;47.416;19.402;2024-01-30T04:12:41;87.63;;;83.63;;
63050;SDS011;49136;47.416;19.402;2024-01-30T04:15:06;90.75;;;86.65;;
63050;SDS011;49136;47.416;19.402;2024-01-30T04:17:32;82.90;;;79.20;;
63050;SDS011;49136;47.416;19.402;2024-01-30T04:19:58;85.90;;;82.13;;
63050;SDS011;49136;47.416;19.402;2024-01-30T04:22:23;80.88;;;77.30;;
63050;SDS011;49136;47.416;19.402;2024-01-30T04:24:49;88.55;;;84.63;;
63050;SDS011;49136;47.416;19.402;2024-01-30T04:27:19;89.97;;;85.90;;
63050;SDS011;49136;47.416;19.402;2024-01-30T04:29:45;88.07;;;84.18;;
63050;SDS011;49136;47.416;19.402;2024-01-30T04:32:10;91.43;;;87.22;;
63050;SDS011;49136;47.416;19.402;2024-01-30T04:34:36;95.95;;;91.18;;
63050;SDS011;49136;47.416;19.402;2024-01-30T04:37:01;85.72;;;81.95;;
63050;SDS011;49136;47.416;19.402;2024-01-30T04:39:27;94.72;;;90.55;;
63050;SDS011;49136;47.416;19.402;2024-01-30T04:41:52;85.00;;;81.20;;
63050;SDS011;49136;47.416;19.402;2024-01-30T04:44:18;90.65;;;86.65;;
63050;SDS011;49136;47.416;19.402;2024-01-30T04:46:43;88.20;;;84.25;;
63050;SDS011;49136;47.416;19.402;2024-01-30T04:49:08;87.47;;;83.57;;
63050;SDS011;49136;47.416;19.402;2024-01-30T04:51:34;90.82;;;86.78;;
63050;SDS011;49136;47.416;19.402;2024-01-30T04:53:59;50.58;;;48.20;;
63050;SDS011;49136;47.416;19.402;2024-01-30T04:56:25;90.20;;;86.07;;
63050;SDS011;49136;47.416;19.402;2024-01-30T04:58:50;89.50;;;85.50;;
63050;SDS011;49136;47.416;19.402;2024-01-30T05:01:16;93.40;;;89.22;;
63050;SDS011;49136;47.416;19.402;2024-01-30T05:03:41;91.05;;;86.70;;
63050;SDS011;49136;47.416;19.402;2024-01-30T05:06:07;49.97;;;47.72;;
63050;SDS011;49136;47.416;19.402;2024-01-30T05:08:32;78.93;;;75.43;;
63050;SDS011;49136;47.416;19.402;2024-01-30T05:11:01;90.28;;;86.30;;
63050;SDS011;49136;47.416;19.402;2024-01-30T05:13:28;86.85;;;83.00;;
63050;SDS011;49136;47.416;19.402;2024-01-30T05:15:56;91.55;;;87.47;;
63050;SDS011;49136;47.416;19.402;2024-01-30T05:18:22;69.30;;;66.22;;
63050;SDS011;49136;47.416;19.402;2024-01-30T05:20:49;87.97;;;84.07;;
63050;SDS011;49136;47.416;19.402;2024-01-30T05:23:15;92.63;;;88.43;;
63050;SDS011;49136;47.416;19.402;2024-01-30T05:25:40;85.90;;;82.10;;
63050;SDS011;49136;47.416;19.402;2024-01-30T05:28:06;88.25;;;84.35;;
63050;SDS011;49136;47.416;19.402;2024-01-30T05:30:31;86.70;;;82.88;;
63050;SDS011;49136;47.416;19.402;2024-01-30T05:32:57;90.63;;;86.40;;
63050;SDS011;49136;47.416;19.402;2024-01-30T05:35:22;87.30;;;83.35;;
63050;SDS011;49136;47.416;19.402;2024-01-30T05:37:48;85.68;;;81.82;;
63050;SDS011;49136;47.416;19.402;2024-01-30T05:40:14;88.22;;;84.00;;
63050;SDS011;49136;47.416;19.402;2024-01-30T05:42:40;84.43;;;80.38;;
63050;SDS011;49136;47.416;19.402;2024-01-30T05:45:05;74.72;;;71.45;;
63050;SDS011;49136;47.416;19.402;2024-01-30T05:47:31;85.18;;;79.72;;
63050;SDS011;49136;47.416;19.402;2024-01-30T05:49:56;60.97;;;58.20;;
63050;SDS011;49136;47.416;19.402;2024-01-30T05:52:22;53.08;;;50.30;;
63050;SDS011;49136;47.416;19.402;2024-01-30T05:54:47;45.25;;;43.22;;
63050;SDS011;49136;47.416;19.402;2024-01-30T05:57:13;24.25;;;23.20;;
63050;SDS011;49136;47.416;19.402;2024-01-30T05:59:38;36.80;;;34.90;;
63050;SDS011;49136;47.416;19.402;2024-01-30T06:02:04;36.33;;;34.67;;
63050;SDS011;49136;47.416;19.402;2024-01-30T06:04:29;50.13;;;47.42;;
63050;SDS011;49136;47.416;19.402;2024-01-30T06:06:55;56.72;;;54.00;;
63050;SDS011;49136;47.416;19.402;2024-01-30T06:09:20;61.35;;;58.55;;
63050;SDS011;49136;47.416;19.402;2024-01-30T06:11:45;53.70;;;51.17;;
63050;SDS011;49136;47.416;19.402;2024-01-30T06:14:11;56.78;;;54.17;;
63050;SDS011;49136;47.416;19.402;2024-01-30T06:16:42;33.20;;;31.73;;
63050;SDS011;49136;47.416;19.402;2024-01-30T06:19:08;37.15;;;35.47;;
63050;SDS011;49136;47.416;19.402;2024-01-30T06:21:33;54.17;;;51.75;;
63050;SDS011;49136;47.416;19.402;2024-01-30T06:24:01;42.33;;;40.47;;
63050;SDS011;49136;47.416;19.402;2024-01-30T06:26:27;75.32;;;71.82;;
63050;SDS011;49136;47.416;19.402;2024-01-30T06:28:52;61.72;;;58.72;;
63050;SDS011;49136;47.416;19.402;2024-01-30T06:31:18;57.97;;;55.42;;
63050;SDS011;49136;47.416;19.402;2024-01-30T06:33:46;50.25;;;47.83;;
63050;SDS011;49136;47.416;19.402;2024-01-30T06:36:12;50.53;;;47.55;;
63050;SDS011;49136;47.416;19.402;2024-01-30T06:38:37;38.30;;;36.38;;
63050;SDS011;49136;47.416;19.402;2024-01-30T06:41:03;57.97;;;55.35;;
63050;SDS011;49136;47.416;19.402;2024-01-30T06:43:28;55.17;;;52.78;;
63050;SDS011;49136;47.416;19.402;2024-01-30T06:45:54;56.83;;;53.97;;
63050;SDS011;49136;47.416;19.402;2024-01-30T06:48:19;62.80;;;60.05;;
63050;SDS011;49136;47.416;19.402;2024-01-30T06:50:44;68.60;;;64.57;;
63050;SDS011;49136;47.416;19.402;2024-01-30T06:53:10;82.07;;;76.95;;
63050;SDS011;49136;47.416;19.402;2024-01-30T06:55:36;65.95;;;62.95;;
63050;SDS011;49136;47.416;19.402;2024-01-30T06:58:01;76.35;;;72.40;;
63050;SDS011;49136;47.416;19.402;2024-01-30T07:00:26;84.97;;;81.07;;
63050;SDS011;49136;47.416;19.402;2024-01-30T07:02:52;94.45;;;90.07;;
63050;SDS011;49136;47.416;19.402;2024-01-30T07:05:18;119.00;;;113.55;;
63050;SDS011;49136;47.416;19.402;2024-01-30T07:07:43;95.10;;;90.80;;
63050;SDS011;49136;47.416;19.402;2024-01-30T07:10:09;107.10;;;102.20;;
63050;SDS011;49136;47.416;19.402;2024-01-30T07:12:34;84.60;;;80.82;;
63050;SDS011;49136;47.416;19.402;2024-01-30T07:14:59;74.57;;;71.30;;
63050;SDS011;49136;47.416;19.402;2024-01-30T07:17:25;86.47;;;82.25;;
63050;SDS011;49136;47.416;19.402;2024-01-30T07:19:50;96.40;;;92.05;;
63050;SDS011;49136;47.416;19.402;2024-01-30T07:22:15;78.30;;;74.15;;
63050;SDS011;49136;47.416;19.402;2024-01-30T07:24:44;88.50;;;83.50;;
63050;SDS011;49136;47.416;19.402;2024-01-30T07:27:12;89.50;;;85.07;;
63050;SDS011;49136;47.416;19.402;2024-01-30T07:29:38;105.80;;;100.68;;
63050;SDS011;49136;47.416;19.402;2024-01-30T07:32:03;100.97;;;96.47;;
63050;SDS011;49136;47.416;19.402;2024-01-30T07:34:29;96.85;;;91.22;;
63050;SDS011;49136;47.416;19.402;2024-01-30T07:36:54;81.60;;;77.53;;
63050;SDS011;49136;47.416;19.402;2024-01-30T07:39:20;93.70;;;88.88;;
63050;SDS011;49136;47.416;19.402;2024-01-30T07:41:45;121.47;;;115.55;;
63050;SDS011;49136;47.416;19.402;2024-01-30T07:44:11;85.90;;;81.80;;
63050;SDS011;49136;47.416;19.402;2024-01-30T07:46:36;71.00;;;67.85;;
63050;SDS011;49136;47.416;19.402;2024-01-30T07:49:02;99.97;;;93.97;;
63050;SDS011;49136;47.416;19.402;2024-01-30T07:51:27;75.00;;;71.25;;
63050;SDS011;49136;47.416;19.402;2024-01-30T07:53:54;71.82;;;68.53;;
63050;SDS011;49136;47.416;19.402;2024-01-30T07:56:20;84.03;;;79.30;;
63050;SDS011;49136;47.416;19.402;2024-01-30T07:58:45;109.63;;;103.38;;
63050;SDS011;49136;47.416;19.402;2024-01-30T08:01:11;104.50;;;98.53;;
63050;SDS011;49136;47.416;19.402;2024-01-30T08:03:36;105.70;;;100.60;;
63050;SDS011;49136;47.416;19.402;2024-01-30T08:06:02;118.85;;;113.10;;
63050;SDS011;49136;47.416;19.402;2024-01-30T08:08:28;105.55;;;100.32;;
63050;SDS011;49136;47.416;19.402;2024-01-30T08:10:53;129.40;;;123.18;;
63050;SDS011;49136;47.416;19.402;2024-01-30T08:13:19;94.80;;;90.40;;
63050;SDS011;49136;47.416;19.402;2024-01-30T08:15:44;112.35;;;105.80;;
63050;SDS011;49136;47.416;19.402;2024-01-30T08:18:09;80.63;;;76.28;;
63050;SDS011;49136;47.416;19.402;2024-01-30T08:20:35;162.98;;;154.52;;
63050;SDS011;49136;47.416;19.402;2024-01-30T08:23:00;214.55;;;202.88;;
63050;SDS011;49136;47.416;19.402;2024-01-30T08:25:26;303.17;;;278.20;;
63050;SDS011;49136;47.416;19.402;2024-01-30T08:27:51;253.48;;;239.35;;
63050;SDS011;49136;47.416;19.402;2024-01-30T08:30:17;142.40;;;135.35;;
63050;SDS011;49136;47.416;19.402;2024-01-30T08:32:42;168.80;;;159.73;;
63050;SDS011;49136;47.416;19.402;2024-01-30T08:35:07;179.43;;;170.20;;
63050;SDS011;49136;47.416;19.402;2024-01-30T08:37:33;125.90;;;118.78;;
63050;SDS011;49136;47.416;19.402;2024-01-30T08:39:59;1999.90;;;999.90;;
63050;SDS011;49136;47.416;19.402;2024-01-30T08:42:25;1999.90;;;999.90;;
63050;SDS011;49136;47.416;19.402;2024-01-30T08:44:51;1999.90;;;999.90;;
63050;SDS011;49136;47.416;19.402;2024-01-30T08:47:18;1999.90;;;999.90;;
63050;SDS011;49136;47.416;19.402;2024-01-30T08:49:43;1999.90;;;999.90;;
63050;SDS011;49136;47.416;19.402;2024-01-30T08:52:09;1999.90;;;999.90;;
63050;SDS011;49136;47.416;19.402;2024-01-30T08:54:35;1999.90;;;999.90;;
63050;SDS011;49136;47.416;19.402;2024-01-30T08:57:01;1999.90;;;999.90;;
63050;SDS011;49136;47.416;19.402;2024-01-30T08:59:27;1999.90;;;999.90;;
63050;SDS011;49136;47.416;19.402;2024-01-30T09:01:52;1999.90;;;999.90;;
63050;SDS011;49136;47.416;19.402;2024-01-30T09:04:20;1999.90;;;999.90;;
63050;SDS011;49136;47.416;19.402;2024-01-30T09:06:46;1999.90;;;999.90;;
63050;SDS011;49136;47.416;19.402;2024-01-30T09:09:11;1999.90;;;999.90;;
63050;SDS011;49136;47.416;19.402;2024-01-30T09:11:36;1999.90;;;999.90;;
63050;SDS011;49136;47.416;19.402;2024-01-30T09:14:02;1999.90;;;999.90;;
63050;SDS011;49136;47.416;19.402;2024-01-30T09:16:27;1999.90;;;999.90;;
63050;SDS011;49136;47.416;19.402;2024-01-30T09:18:53;1999.90;;;999.90;;
63050;SDS011;49136;47.416;19.402;2024-01-30T09:21:19;1999.90;;;999.90;;
63050;SDS011;49136;47.416;19.402;2024-01-30T09:23:44;1999.90;;;999.90;;
63050;SDS011;49136;47.416;19.402;2024-01-30T09:26:09;1999.90;;;999.90;;
63050;SDS011;49136;47.416;19.402;2024-01-30T09:28:35;1999.90;;;999.90;;
63050;SDS011;49136;47.416;19.402;2024-01-30T09:31:01;1999.90;;;999.90;;
63050;SDS011;49136;47.416;19.402;2024-01-30T09:33:26;1999.90;;;999.90;;
63050;SDS011;49136;47.416;19.402;2024-01-30T09:35:51;1999.90;;;999.90;;
63050;SDS011;49136;47.416;19.402;2024-01-30T09:38:17;1999.90;;;999.90;;
63050;SDS011;49136;47.416;19.402;2024-01-30T09:40:42;1999.90;;;999.90;;
63050;SDS011;49136;47.416;19.402;2024-01-30T09:43:08;1999.90;;;999.90;;
63050;SDS011;49136;47.416;19.402;2024-01-30T09:45:38;1999.90;;;999.90;;
63050;SDS011;49136;47.416;19.402;2024-01-30T09:48:05;1999.90;;;999.90;;
63050;SDS011;49136;47.416;19.402;2024-01-30T09:50:31;1999.90;;;999.90;;
63050;SDS011;49136;47.416;19.402;2024-01-30T09:52:57;1999.90;;;999.90;;
63050;SDS011;49136;47.416;19.402;2024-01-30T09:55:24;1999.90;;;999.90;;
63050;SDS011;49136;47.416;19.402;2024-01-30T09:57:49;1999.90;;;999.90;;
63050;SDS011;49136;47.416;19.402;2024-01-30T10:00:15;1999.90;;;999.90;;
63050;SDS011;49136;47.416;19.402;2024-01-30T10:02:41;1999.90;;;999.90;;
63050;SDS011;49136;47.416;19.402;2024-01-30T10:05:08;1999.90;;;999.90;;
63050;SDS011;49136;47.416;19.402;2024-01-30T10:07:33;1999.90;;;999.90;;
63050;SDS011;49136;47.416;19.402;2024-01-30T10:09:59;1999.90;;;999.90;;
63050;SDS011;49136;47.416;19.402;2024-01-30T10:12:28;1999.90;;;999.90;;
63050;SDS011;49136;47.416;19.402;2024-01-30T10:14:55;1999.90;;;999.90;;
63050;SDS011;49136;47.416;19.402;2024-01-30T10:17:21;545.47;;;292.95;;
63050;SDS011;49136;47.416;19.402;2024-01-30T10:19:50;75.45;;;70.97;;
63050;SDS011;49136;47.416;19.402;2024-01-30T10:22:16;108.00;;;101.70;;
63050;SDS011;49136;47.416;19.402;2024-01-30T10:24:42;71.22;;;67.35;;
63050;SDS011;49136;47.416;19.402;2024-01-30T10:27:10;216.95;;;205.65;;
63050;SDS011;49136;47.416;19.402;2024-01-30T10:29:36;132.63;;;125.28;;
63050;SDS011;49136;47.416;19.402;2024-01-30T10:32:03;226.75;;;213.98;;
63050;SDS011;49136;47.416;19.402;2024-01-30T10:34:29;305.33;;;288.20;;
63050;SDS011;49136;47.416;19.402;2024-01-30T10:37:16;129.25;;;121.97;;
63050;SDS011;49136;47.416;19.402;2024-01-30T10:39:42;392.13;;;368.88;;
63050;SDS011;49136;47.416;19.402;2024-01-30T10:42:17;219.45;;;207.38;;
63050;SDS011;49136;47.416;19.402;2024-01-30T10:47:12;241.60;;;227.40;;
63050;SDS011;49136;47.416;19.402;2024-01-30T10:49:39;149.38;;;141.05;;
63050;SDS011;49136;47.416;19.402;2024-01-30T10:52:11;94.32;;;89.18;;
63050;SDS011;49136;47.416;19.402;2024-01-30T10:54:39;96.63;;;91.45;;
63050;SDS011;49136;47.416;19.402;2024-01-30T10:57:05;97.07;;;92.15;;
63050;SDS011;49136;47.416;19.402;2024-01-30T10:59:31;127.97;;;121.47;;
63050;SDS011;49136;47.416;19.402;2024-01-30T11:01:58;172.80;;;163.35;;
63050;SDS011;49136;47.416;19.402;2024-01-30T11:04:24;227.05;;;214.45;;
63050;SDS011;49136;47.416;19.402;2024-01-30T11:06:50;108.03;;;102.28;;
63050;SDS011;49136;47.416;19.402;2024-01-30T11:09:17;143.80;;;136.40;;
63050;SDS011;49136;47.416;19.402;2024-01-30T11:11:55;59.75;;;56.55;;
63050;SDS011;49136;47.416;19.402;2024-01-30T11:14:27;99.10;;;93.78;;
63050;SDS011;49136;47.416;19.402;2024-01-30T11:16:58;72.75;;;68.70;;
63050;SDS011;49136;47.416;19.402;2024-01-30T11:19:24;88.15;;;83.18;;
63050;SDS011;49136;47.416;19.402;2024-01-30T11:21:56;109.68;;;103.63;;
63050;SDS011;49136;47.416;19.402;2024-01-30T11:24:24;52.80;;;49.88;;
63050;SDS011;49136;47.416;19.402;2024-01-30T11:26:55;48.90;;;46.65;;
63050;SDS011;49136;47.416;19.402;2024-01-30T11:29:25;68.45;;;64.93;;
63050;SDS011;49136;47.416;19.402;2024-01-30T11:31:53;68.10;;;64.75;;
63050;SDS011;49136;47.416;19.402;2024-01-30T11:34:22;84.47;;;79.93;;
63050;SDS011;49136;47.416;19.402;2024-01-30T11:36:57;70.35;;;66.28;;
63050;SDS011;49136;47.416;19.402;2024-01-30T11:39:27;64.72;;;61.10;;
63050;SDS011;49136;47.416;19.402;2024-01-30T11:41:54;60.63;;;57.45;;
63050;SDS011;49136;47.416;19.402;2024-01-30T11:44:20;56.38;;;53.40;;
63050;SDS011;49136;47.416;19.402;2024-01-30T11:46:50;74.93;;;70.82;;
63050;SDS011;49136;47.416;19.402;2024-01-30T11:49:17;95.22;;;90.00;;
63050;SDS011;49136;47.416;19.402;2024-01-30T11:51:42;56.95;;;54.05;;
63050;SDS011;49136;47.416;19.402;2024-01-30T11:54:13;90.00;;;84.87;;
63050;SDS011;49136;47.416;19.402;2024-01-30T11:56:39;79.38;;;75.22;;
63050;SDS011;49136;47.416;19.402;2024-01-30T11:59:04;99.30;;;93.72;;
63050;SDS011;49136;47.416;19.402;2024-01-30T12:01:30;95.57;;;90.72;;
63050;SDS011;49136;47.416;19.402;2024-01-30T12:03:57;41.97;;;39.88;;
63050;SDS011;49136;47.416;19.402;2024-01-30T12:06:23;46.15;;;43.85;;
63050;SDS011;49136;47.416;19.402;2024-01-30T12:08:59;50.50;;;47.97;;
63050;SDS011;49136;47.416;19.402;2024-01-30T12:11:26;64.05;;;60.13;;
63050;SDS011;49136;47.416;19.402;2024-01-30T12:13:52;79.32;;;74.85;;
63050;SDS011;49136;47.416;19.402;2024-01-30T12:16:19;52.65;;;50.00;;
63050;SDS011;49136;47.416;19.402;2024-01-30T12:18:44;66.65;;;63.20;;
63050;SDS011;49136;47.416;19.402;2024-01-30T12:21:10;63.60;;;60.03;;
63050;SDS011;49136;47.416;19.402;2024-01-30T12:23:36;45.45;;;43.10;;
63050;SDS011;49136;47.416;19.402;2024-01-30T12:26:01;68.68;;;64.78;;
63050;SDS011;49136;47.416;19.402;2024-01-30T12:28:32;77.55;;;73.40;;
63050;SDS011;49136;47.416;19.402;2024-01-30T12:31:03;56.95;;;53.03;;
63050;SDS011;49136;47.416;19.402;2024-01-30T12:33:29;62.50;;;59.15;;
63050;SDS011;49136;47.416;19.402;2024-01-30T12:35:55;84.43;;;79.88;;
63050;SDS011;49136;47.416;19.402;2024-01-30T12:38:22;65.47;;;62.05;;
63050;SDS011;49136;47.416;19.402;2024-01-30T12:40:48;159.55;;;150.35;;
63050;SDS011;49136;47.416;19.402;2024-01-30T12:43:14;99.40;;;94.20;;
63050;SDS011;49136;47.416;19.402;2024-01-30T12:45:41;39.63;;;37.45;;
63050;SDS011;49136;47.416;19.402;2024-01-30T12:48:07;51.72;;;49.13;;
63050;SDS011;49136;47.416;19.402;2024-01-30T12:50:32;61.53;;;58.17;;
63050;SDS011;49136;47.416;19.402;2024-01-30T12:52:58;38.08;;;36.05;;
63050;SDS011;49136;47.416;19.402;2024-01-30T12:55:23;65.00;;;61.38;;
63050;SDS011;49136;47.416;19.402;2024-01-30T12:57:50;49.13;;;46.22;;
63050;SDS011;49136;47.416;19.402;2024-01-30T13:00:15;44.00;;;41.80;;
63050;SDS011;49136;47.416;19.402;2024-01-30T13:02:42;55.25;;;52.05;;
63050;SDS011;49136;47.416;19.402;2024-01-30T13:05:10;51.65;;;48.45;;
63050;SDS011;49136;47.416;19.402;2024-01-30T13:07:36;154.73;;;146.20;;
63050;SDS011;49136;47.416;19.402;2024-01-30T13:10:02;43.70;;;41.58;;
63050;SDS011;49136;47.416;19.402;2024-01-30T13:12:29;54.15;;;51.40;;
63050;SDS011;49136;47.416;19.402;2024-01-30T13:14:55;49.00;;;46.08;;
63050;SDS011;49136;47.416;19.402;2024-01-30T13:17:20;42.22;;;40.00;;
63050;SDS011;49136;47.416;19.402;2024-01-30T13:19:46;42.22;;;40.20;;
63050;SDS011;49136;47.416;19.402;2024-01-30T13:22:13;44.28;;;41.85;;
63050;SDS011;49136;47.416;19.402;2024-01-30T13:24:39;45.15;;;43.03;;
63050;SDS011;49136;47.416;19.402;2024-01-30T13:27:06;56.83;;;53.65;;
63050;SDS011;49136;47.416;19.402;2024-01-30T13:29:31;54.00;;;50.97;;
63050;SDS011;49136;47.416;19.402;2024-01-30T13:31:57;47.88;;;45.53;;
63050;SDS011;49136;47.416;19.402;2024-01-30T13:34:22;38.50;;;36.45;;
63050;SDS011;49136;47.416;19.402;2024-01-30T13:36:48;48.40;;;45.53;;
63050;SDS011;49136;47.416;19.402;2024-01-30T13:39:14;38.97;;;36.28;;
63050;SDS011;49136;47.416;19.402;2024-01-30T13:41:41;47.03;;;44.72;;
63050;SDS011;49136;47.416;19.402;2024-01-30T13:44:07;90.32;;;85.00;;
63050;SDS011;49136;47.416;19.402;2024-01-30T13:46:33;63.25;;;59.67;;
63050;SDS011;49136;47.416;19.402;2024-01-30T13:48:59;75.13;;;71.15;;
63050;SDS011;49136;47.416;19.402;2024-01-30T13:51:25;52.05;;;49.40;;
63050;SDS011;49136;47.416;19.402;2024-01-30T13:53:50;41.67;;;39.53;;
63050;SDS011;49136;47.416;19.402;2024-01-30T13:56:16;48.83;;;45.97;;
63050;SDS011;49136;47.416;19.402;2024-01-30T13:58:41;54.50;;;51.70;;